Sweida, Syria

1:44 AM EEST on July 27, 2016 (GMT +0300)
galilee mountain | | Change Station

Elev 2950 ft 32.99 °N, 35.48 °E | Updated 9 minutes ago

Haze
Haze
74.6 °F
Feels Like 77 °F
N
5.0
Wind Variable Wind from WSW
Gusts 8.0 mph

Today
High -- | Low -- °F
--% Chance of Precip.
Yesterday
High -- | Low -- °F
Precip. -- in
Pressure 29.83 in
Visibility 3.1 miles
Clouds
Heat Index 77 °F
Dew Point 41 °F
Humidity 30%
Rainfall 0.00 in
Snow Depth Not available.
5:48 AM 7:39 PM
Waning Gibbous, 50% visible
METAR OJAM 262200Z 29006KT 5000 HZ NSC 26/05 Q1010 NOSIG
Pressure 29.83 in
Visibility 3.1 miles
Clouds
Heat Index 77 °F
Dew Point 41 °F
Humidity 30%
Rainfall 0.00 in
Snow Depth Not available.
5:48 AM 7:39 PM
Waning Gibbous, 50% visible
METAR OJAM 262200Z 29006KT 5000 HZ NSC 26/05 Q1010 NOSIG

10-Day Weather Forecast

No radar image for this location.
×

Almanac

Astronomy

Jul. 27, 2016 Rise Set
Actual Time
Civil Twilight
Nautical Twilight
Astronomical Twilight
Moon
Length of Visible Light
Length of Day
Tomorrow will be .
, % of the Moon is Illuminated

Today's Extremes

Country Highs Country Lows

Community

WunderPhotos

Upload Photos

1,927,728 photos uploaded!

WunderBlog® & News

Nearby

Air Quality

  Air Quality AQ Index Pollutant
Not available.

Snow Depth

Station Depth Elevation

Earthquake Activity

City Distance Mag. Time & Date
Minimum magnitude displayed is 2.5.

Coastal Water Temperatures

Place Temperature

Stations

Nearby Weather Stations

Station Location Temp. Windchill Dew Point Humidity Wind Precip. Elev Updated Type